Russell, Kansas
Current Conditions -  °F | °C
As of 2:53 PM on Friday 24 Oct 2014 (Local Time) from KRSL Reporting Station
Clear Clear  
Wind Chill: 84°   Ceiling: Unl
Heat Index: 84°   Visibility: 10mi
Dew Point: 55°   Wind: 10mph
Humidity: 37%   Direction: 210°SSW
Pressure: 29.95"   Gusts: NA
Location:  38.9°N, 98.86°W
Report Text: KRSL 241953Z AUTO 21009KT 10SM CLR 29/13 A2995 RMK AO2 SLP129 T02890128
Loading
Personal Weather Stations






























Interactive Weather Map
Tropical Storm Tracking
New forecast layout! Learn more

10-Day Weather Forecast

Advertisements
Track Severe Weather on mobile